Time;durP1;ratioP1;P1;durP2;ratioP2;P2;SDS_P1;SDS_P2;PMS_P1;PMS_P2;Temp;Humidity;BMP_temperature;BMP_pressure;BME280_temperature;BME280_humidity;BME280_pressure;Samples;Min_cycle;Max_cycle;Signal;HPM_P1;HPM_P2
2022/03/01 10:13:28;;;;;;;1.87;1.77;;;;;;;2.83;63.58;92824.19;5032466;27;20917;-76
2022/03/01 10:16:04;;;;;;;4.37;2.40;;;;;;;2.70;64.05;92805.22;5031735;28;20449;-77
2022/03/01 10:18:33;;;;;;;4.60;4.23;;;;;;;2.47;63.90;92748.94;5030259;28;20580;-76
2022/03/01 10:21:10;;;;;;;6.20;5.37;;;;;;;2.54;62.67;92778.75;5031142;28;20600;-77
2022/03/01 10:23:41;;;;;;;4.80;3.43;;;;;;;2.46;62.34;92807.13;5029616;28;20636;-76
2022/03/01 10:26:18;;;;;;;3.93;3.57;;;;;;;2.37;62.50;92794.72;5029321;28;20550;-76
2022/03/01 10:28:48;;;;;;;1.50;1.50;;;;;;;2.32;63.54;92793.09;5030111;28;20640;-77
2022/03/01 10:31:17;;;;;;;4.47;2.57;;;;;;;2.32;63.52;92778.97;5030604;28;20538;-76
2022/03/01 10:33:56;;;;;;;7.53;6.63;;;;;;;2.68;65.10;92786.94;5032244;28;20566;-74
2022/03/01 10:36:25;;;;;;;3.03;2.93;;;;;;;2.58;62.04;92788.72;5034087;28;20646;-76
2022/03/01 10:39:00;;;;;;;93.97;24.33;;;;;;;2.36;62.11;92779.78;5050332;28;20252;-76
2022/03/01 10:44:58;;;;;;;11.63;7.43;;;;;;;2.29;63.81;92721.69;5017256;28;20510;-75
2022/03/01 10:47:25;;;;;;;4.13;3.60;;;;;;;2.17;63.01;92716.84;5004851;28;20601;-77
2022/03/01 10:50:01;;;;;;;17.77;3.53;;;;;;;2.84;63.95;92793.41;5000046;28;20493;-76
2022/03/01 10:52:33;;;;;;;208.90;74.47;;;;;;;2.78;61.98;92805.94;5000135;28;20566;-75
2022/03/01 10:55:01;;;;;;;25.60;14.67;;;;;;;2.70;63.60;92781.09;5006393;28;20574;-75
2022/03/01 10:57:28;;;;;;;16.93;10.00;;;;;;;2.67;65.44;92770.31;5009124;28;20557;-75
2022/03/01 10:59:57;;;;;;;5.97;5.60;;;;;;;2.45;64.42;92780.53;5005082;28;20577;-76
2022/03/01 11:02:24;;;;;;;5.40;5.00;;;;;;;2.51;66.47;92774.66;5001814;28;20455;-74
2022/03/01 11:04:52;;;;;;;4.00;3.63;;;;;;;2.37;64.16;92772.28;4999763;28;20567;-74
2022/03/01 11:07:29;;;;;;;4.47;4.27;;;;;;;2.22;64.01;92735.06;5004699;28;20473;-76
2022/03/01 11:10:05;;;;;;;4.43;4.13;;;;;;;2.18;64.46;92730.13;5005180;28;20575;-76
2022/03/01 11:12:36;;;;;;;3.10;2.87;;;;;;;2.06;64.11;92706.97;4996684;28;20536;-75
2022/03/01 11:15:17;;;;;;;5.83;5.53;;;;;;;2.18;63.25;92711.00;4986114;28;20558;-75
2022/03/01 11:18:15;;;;;;;3.17;2.97;;;;;;;2.44;62.39;92781.34;4985232;28;20542;-75
2022/03/01 11:20:48;;;;;;;2.90;2.80;;;;;;;2.60;63.54;92791.16;4988931;28;20651;-75
2022/03/01 11:23:24;;;;;;;6.60;4.17;;;;;;;1.94;64.09;92691.31;4987621;28;20633;-76
2022/03/01 11:25:53;;;;;;;5.30;3.50;;;;;;;2.44;65.52;92761.41;4985574;28;20674;-76
2022/03/01 11:28:40;;;;;;;6.80;4.57;;;;;;;2.14;65.57;92721.81;4990264;28;20582;-75
2022/03/01 11:31:23;;;;;;;3.00;2.80;;;;;;;2.31;67.21;92744.91;4989503;28;20484;-76
2022/03/01 11:33:59;;;;;;;3.40;3.10;;;;;;;2.07;66.75;92690.34;4989285;28;20591;-75
2022/03/01 11:36:28;;;;;;;7.13;6.30;;;;;;;2.46;66.34;92743.97;4985837;28;20587;-75
2022/03/01 11:38:57;;;;;;;2.67;2.57;;;;;;;2.35;66.26;92706.69;4993033;28;20226;-74
2022/03/01 11:41:24;;;;;;;5.47;5.03;;;;;;;2.59;66.88;92738.00;4988787;28;20599;-74
2022/03/01 11:43:57;;;;;;;6.27;5.80;;;;;;;2.43;66.71;92689.13;4985662;28;20480;-76
2022/03/01 11:46:26;;;;;;;4.03;3.73;;;;;;;2.60;66.86;92728.84;4987617;28;20599;-73
2022/03/01 11:48:56;;;;;;;6.50;5.90;;;;;;;2.28;67.47;92704.25;4980010;28;20561;-73
2022/03/01 11:51:34;;;;;;;6.00;5.57;;;;;;;2.41;68.23;92724.06;4990868;28;20550;-75
2022/03/01 11:54:06;;;;;;;15.67;8.60;;;;;;;2.42;67.99;92719.91;4989164;28;20210;-75
2022/03/01 11:56:35;;;;;;;15.03;9.87;;;;;;;2.52;68.59;92725.63;4989461;28;20591;-74
2022/03/01 11:59:07;;;;;;;8.47;7.97;;;;;;;2.31;68.49;92724.97;4987389;28;20567;-74
2022/03/01 12:01:36;;;;;;;15.43;13.37;;;;;;;1.93;68.48;92697.94;4984678;28;20497;-74
2022/03/01 12:04:06;;;;;;;6.57;5.97;;;;;;;1.95;69.52;92712.91;4988950;28;20606;-75
2022/03/01 12:06:36;;;;;;;8.40;6.10;;;;;;;1.93;68.76;92707.91;4992799;28;20272;-74
2022/03/01 12:09:06;;;;;;;14.07;6.13;;;;;;;1.86;69.58;92703.03;4985093;28;20213;-73
2022/03/01 12:11:37;;;;;;;4.93;4.63;;;;;;;1.81;68.87;92700.56;4981378;28;20578;-73
2022/03/01 12:14:08;;;;;;;7.83;6.47;;;;;;;1.34;69.43;92651.19;4988872;28;20205;-74
2022/03/01 12:16:42;;;;;;;2.80;2.67;;;;;;;1.77;70.12;92696.44;4991909;28;20655;-74
2022/03/01 12:19:12;;;;;;;11.17;5.40;;;;;;;1.50;70.13;92632.78;4988072;28;20578;-76
2022/03/01 12:21:41;;;;;;;3.27;3.07;;;;;;;2.00;69.85;92691.25;4988915;28;20565;-79
2022/03/01 12:24:09;;;;;;;5.57;5.13;;;;;;;2.07;70.05;92673.75;4986082;28;20497;-77
2022/03/01 12:26:45;;;;;;;3.10;3.00;;;;;;;2.14;69.21;92672.00;4985706;28;20749;-77
2022/03/01 12:29:13;;;;;;;5.93;5.53;;;;;;;2.28;68.23;92697.59;4995590;28;20566;-77
2022/03/01 12:31:42;;;;;;;12.53;5.00;;;;;;;2.13;68.27;92669.53;4985015;28;20551;-76
2022/03/01 12:34:11;;;;;;;16.90;10.93;;;;;;;2.15;67.67;92661.19;4989253;28;20475;-76
2022/03/01 12:36:41;;;;;;;20.80;12.47;;;;;;;1.94;66.77;92631.53;4988943;28;20559;-77
2022/03/01 12:39:11;;;;;;;10.57;9.00;;;;;;;2.39;67.03;92702.47;4988148;28;20235;-76
2022/03/01 12:41:39;;;;;;;8.07;5.93;;;;;;;1.81;67.52;92608.41;4993512;28;20591;-75
2022/03/01 12:44:08;;;;;;;10.10;7.27;;;;;;;2.41;67.23;92704.13;4982529;28;20521;-75
2022/03/01 12:46:37;;;;;;;2.33;2.23;;;;;;;2.41;66.11;92705.78;4988043;28;20606;-76
2022/03/01 12:49:09;;;;;;;3.73;3.53;;;;;;;2.40;65.72;92702.47;4977526;28;20544;-77
2022/03/01 12:51:38;;;;;;;4.93;4.53;;;;;;;2.23;66.23;92673.56;4989527;28;20479;-78
2022/03/01 12:54:10;;;;;;;3.07;2.97;;;;;;;2.32;65.76;92708.38;4983102;28;20563;-78
2022/03/01 12:56:39;;;;;;;5.10;4.80;;;;;;;2.19;65.84;92680.28;4988340;28;20572;-77
2022/03/01 12:59:09;;;;;;;4.50;4.20;;;;;;;1.78;65.97;92605.97;4986562;28;20557;-78
2022/03/01 13:01:38;;;;;;;6.50;5.97;;;;;;;1.88;67.36;92607.50;4986060;28;20404;-77
2022/03/01 13:04:09;;;;;;;6.03;3.47;;;;;;;1.91;65.79;92636.56;4988963;28;20496;-77
2022/03/01 13:06:37;;;;;;;3.03;2.93;;;;;;;2.01;65.11;92648.91;4991337;28;20229;-76
2022/03/01 13:09:05;;;;;;;2.73;2.63;;;;;;;2.36;64.20;92710.84;4985835;28;20548;-77
2022/03/01 13:11:33;;;;;;;1.30;1.30;;;;;;;2.37;63.75;92704.97;4981729;28;20575;-77
2022/03/01 13:14:04;;;;;;;2.10;2.10;;;;;;;2.31;63.14;92706.75;4988707;28;20474;-77
2022/03/01 13:16:33;;;;;;;2.60;2.40;;;;;;;1.98;64.57;92621.50;4981563;28;20619;-77
2022/03/01 13:19:03;;;;;;;1.87;1.87;;;;;;;2.45;63.75;92704.91;4987961;28;20503;-77
2022/03/01 13:21:34;;;;;;;1.80;1.80;;;;;;;2.55;63.88;92693.97;4985193;28;20568;-78
2022/03/01 13:24:04;;;;;;;3.30;3.10;;;;;;;2.15;63.28;92636.28;4984100;28;20306;-77
2022/03/01 13:26:32;;;;;;;3.13;2.93;;;;;;;2.48;64.74;92669.94;4985842;28;20548;-81
2022/03/01 13:29:09;;;;;;;2.23;2.13;;;;;;;2.42;62.02;92708.25;4991096;28;20501;-78
2022/03/01 13:31:43;;;;;;;3.83;3.73;;;;;;;1.75;62.98;92602.69;4980012;28;20555;-80
2022/03/01 13:34:21;;;;;;;3.20;3.00;;;;;;;1.74;62.53;92606.84;4990855;28;20555;-78
2022/03/01 13:36:53;;;;;;;3.03;2.83;;;;;;;1.95;63.43;92633.19;4987396;28;20577;-79
2022/03/01 13:39:23;;;;;;;1.87;1.87;;;;;;;2.01;63.94;92661.34;4988548;28;20583;-78
2022/03/01 13:42:00;;;;;;;2.37;2.27;;;;;;;1.75;64.55;92608.47;4987848;28;20203;-79
2022/03/01 13:44:35;;;;;;;4.00;3.90;;;;;;;1.81;64.66;92617.53;4981539;28;20611;-79
2022/03/01 13:47:11;;;;;;;3.17;3.07;;;;;;;1.78;65.65;92615.91;4984178;28;20497;-78
2022/03/01 13:49:41;;;;;;;5.27;4.87;;;;;;;2.06;65.41;92666.28;4977399;28;20605;-79
2022/03/01 13:52:41;;;;;;;2.33;2.30;;;;;;;2.13;66.45;92657.09;4985951;28;20214;-78
2022/03/01 13:55:14;;;;;;;3.93;3.40;;;;;;;2.08;66.23;92654.66;4987643;28;20587;-79
2022/03/01 13:57:58;;;;;;;5.73;4.13;;;;;;;2.14;67.41;92653.75;4988961;28;20651;-79
2022/03/01 14:00:36;;;;;;;2.77;2.67;;;;;;;2.05;68.45;92635.56;4992746;28;20598;-77
2022/03/01 14:03:21;;;;;;;3.03;2.83;;;;;;;1.50;68.43;92575.53;4990348;28;20613;-76
2022/03/01 14:05:54;;;;;;;2.77;2.67;;;;;;;1.92;69.16;92638.19;4988193;28;20472;-76
2022/03/01 14:08:24;;;;;;;3.63;3.07;;;;;;;1.41;68.66;92584.75;4988393;28;20590;-76
2022/03/01 14:10:53;;;;;;;5.83;2.27;;;;;;;1.21;68.46;92579.94;4988903;28;20539;-77
2022/03/01 14:13:23;;;;;;;2.77;2.67;;;;;;;1.37;70.02;92595.56;4990632;28;20562;-77
2022/03/01 14:15:51;;;;;;;4.20;3.97;;;;;;;1.63;70.38;92626.84;4988608;28;20257;-75
2022/03/01 14:18:38;;;;;;;2.13;2.10;;;;;;;1.80;70.86;92628.38;4988625;28;20535;-77
2022/03/01 14:21:07;;;;;;;3.33;3.23;;;;;;;1.76;71.60;92605.13;4982637;28;20588;-77
2022/03/01 14:23:36;;;;;;;9.73;7.60;;;;;;;1.77;71.44;92586.88;4987224;28;20566;-79
2022/03/01 14:26:03;;;;;;;10.67;7.47;;;;;;;1.98;69.53;92623.16;4986448;28;20578;-78
2022/03/01 14:28:31;;;;;;;18.90;8.47;;;;;;;2.18;68.60;92648.72;4990717;28;20634;-78
2022/03/01 14:30:59;;;;;;;4.63;4.13;;;;;;;2.27;69.69;92645.28;4990787;28;20477;-79
2022/03/01 14:33:26;;;;;;;4.20;4.00;;;;;;;2.18;68.07;92647.88;4986511;28;20567;-79
2022/03/01 14:35:53;;;;;;;4.47;4.20;;;;;;;1.63;66.87;92586.22;4983893;28;20639;-77
2022/03/01 14:38:21;;;;;;;2.50;2.47;;;;;;;1.80;66.49;92624.22;4981287;28;20597;-77
2022/03/01 14:40:50;;;;;;;2.67;2.53;;;;;;;1.41;67.35;92573.13;4994549;28;20471;-77
2022/03/01 14:43:18;;;;;;;3.43;2.17;;;;;;;1.38;68.51;92555.75;4984161;28;20614;-76
2022/03/01 14:45:45;;;;;;;3.47;3.27;;;;;;;1.62;69.99;92624.38;4994398;28;20609;-78
2022/03/01 14:48:13;;;;;;;3.90;3.60;;;;;;;1.15;70.73;92567.56;4982647;28;20503;-78
2022/03/01 14:50:40;;;;;;;3.57;3.27;;;;;;;1.32;71.21;92592.28;4996507;28;20644;-77
2022/03/01 14:53:08;;;;;;;2.73;2.63;;;;;;;1.42;71.01;92627.03;4979061;28;20587;-77
2022/03/01 14:55:35;;;;;;;1.90;1.90;;;;;;;1.11;70.93;92595.78;4976920;28;20199;-77
2022/03/01 14:58:04;;;;;;;2.30;2.20;;;;;;;1.34;72.52;92633.75;4986707;28;20597;-78
2022/03/01 15:00:33;;;;;;;5.03;3.50;;;;;;;0.78;71.78;92557.91;4978044;28;20194;-77
2022/03/01 15:03:05;;;;;;;5.63;3.17;;;;;;;1.02;72.89;92601.66;4988543;28;20480;-76
2022/03/01 15:05:37;;;;;;;3.67;3.30;;;;;;;0.89;72.77;92587.66;4995077;28;20494;-78
2022/03/01 15:08:08;;;;;;;4.50;2.47;;;;;;;0.75;71.49;92590.25;4989792;28;20524;-77
2022/03/01 15:10:39;;;;;;;4.17;2.13;;;;;;;1.12;71.37;92659.63;5124890;23;20530;-77
2022/03/01 15:13:07;;;;;;;2.90;2.80;;;;;;;0.92;72.64;92632.41;4955121;28;20594;-78
2022/03/01 15:15:35;;;;;;;2.43;2.30;;;;;;;0.97;73.38;92632.34;4956768;28;20211;-78
2022/03/01 15:18:03;;;;;;;3.57;3.37;;;;;;;1.04;73.41;92644.75;4957568;28;20211;-78
2022/03/01 15:20:30;;;;;;;2.27;2.17;;;;;;;1.00;73.66;92639.81;4958379;28;20571;-78
2022/03/01 15:22:57;;;;;;;2.73;2.53;;;;;;;1.02;73.31;92648.91;4956161;28;20226;-78
2022/03/01 15:25:25;;;;;;;5.47;3.67;;;;;;;0.93;73.80;92629.06;4957966;28;20652;-79
2022/03/01 15:27:52;;;;;;;11.50;10.33;;;;;;;0.88;73.91;92634.91;4957318;28;20588;-77
2022/03/01 15:30:22;;;;;;;3.40;3.27;;;;;;;0.92;72.88;92644.84;4957753;28;20212;-78
2022/03/01 15:32:50;;;;;;;2.10;2.10;;;;;;;0.73;73.09;92618.44;4957450;28;20503;-77
2022/03/01 15:35:18;;;;;;;5.27;3.70;;;;;;;0.86;73.86;92642.38;4958446;28;20540;-76
2022/03/01 15:37:46;;;;;;;4.97;4.73;;;;;;;0.86;74.27;92641.56;4957803;28;20584;-77
2022/03/01 15:40:15;;;;;;;6.70;5.20;;;;;;;0.88;74.41;92634.91;4958235;28;20543;-77
2022/03/01 15:42:43;;;;;;;4.13;3.93;;;;;;;0.95;74.47;92647.31;4956981;28;20658;-76
2022/03/01 15:45:12;;;;;;;5.13;4.67;;;;;;;0.92;74.84;92629.91;4957757;28;20206;-78
2022/03/01 15:47:43;;;;;;;5.17;4.83;;;;;;;0.95;75.52;92634.06;4954163;28;20477;-77
2022/03/01 15:50:12;;;;;;;4.53;4.23;;;;;;;0.98;75.49;92639.81;4957092;28;20588;-76
2022/03/01 15:52:41;;;;;;;3.77;3.40;;;;;;;1.07;75.42;92641.44;4957271;28;20669;-78
2022/03/01 15:55:10;;;;;;;2.53;2.43;;;;;;;1.10;73.07;92664.63;4957285;28;20230;-76
2022/03/01 15:57:37;;;;;;;5.47;3.57;;;;;;;1.06;73.17;92655.53;4957899;28;20206;-78
2022/03/01 16:00:11;;;;;;;2.97;2.87;;;;;;;0.90;75.68;92643.22;4957265;28;20608;-79
2022/03/01 16:02:43;;;;;;;7.83;3.53;;;;;;;1.02;73.87;92653.03;4958238;28;20536;-76
2022/03/01 16:05:11;;;;;;;2.73;2.73;;;;;;;1.07;73.17;92657.16;4957233;28;20729;-78
2022/03/01 16:07:38;;;;;;;3.40;3.30;;;;;;;1.08;73.75;92651.34;4957356;28;20664;-77
2022/03/01 16:10:08;;;;;;;2.93;2.83;;;;;;;0.91;74.79;92632.41;4958055;28;20535;-74
2022/03/01 16:12:36;;;;;;;3.30;2.70;;;;;;;1.00;75.87;92642.31;4956735;28;20579;-75
2022/03/01 16:15:05;;;;;;;3.90;3.70;;;;;;;0.92;75.00;92624.09;4957397;28;20595;-75
2022/03/01 16:17:32;;;;;;;3.63;2.93;;;;;;;1.12;74.87;92652.16;4956704;28;20560;-78
2022/03/01 16:20:03;;;;;;;4.73;4.33;;;;;;;1.16;74.35;92654.63;4955276;28;20536;-76
2022/03/01 16:22:30;;;;;;;4.30;4.03;;;;;;;1.09;74.10;92654.66;4954247;28;20532;-75
2022/03/01 16:24:57;;;;;;;5.37;4.87;;;;;;;0.95;75.00;92657.25;4954364;28;20480;-74
2022/03/01 16:27:25;;;;;;;4.43;4.00;;;;;;;0.76;75.30;92651.56;4954524;28;20602;-74
2022/03/01 16:29:53;;;;;;;8.60;7.60;;;;;;;0.86;75.66;92661.44;4952538;28;20486;-75
2022/03/01 16:32:20;;;;;;;10.67;9.53;;;;;;;0.97;74.61;92668.00;4954302;28;20496;-74
2022/03/01 16:34:48;;;;;;;8.00;7.50;;;;;;;1.05;74.83;92663.00;4954700;28;20551;-73
2022/03/01 16:37:16;;;;;;;9.23;8.00;;;;;;;0.90;74.70;92660.59;4954733;28;20604;-74
2022/03/01 16:39:44;;;;;;;11.27;6.43;;;;;;;0.72;76.24;92654.06;4952710;28;20490;-74
2022/03/01 16:42:11;;;;;;;6.10;5.33;;;;;;;0.66;77.81;92657.44;4951522;28;20504;-74
2022/03/01 16:44:39;;;;;;;2.97;2.87;;;;;;;0.46;78.80;92649.22;4954061;28;20223;-74
2022/03/01 16:47:08;;;;;;;2.20;2.10;;;;;;;0.26;80.24;92643.53;4952868;28;20562;-74
2022/03/01 16:49:36;;;;;;;1.73;1.73;;;;;;;0.20;81.55;92639.41;4951861;28;20566;-73
2022/03/01 16:52:06;;;;;;;3.13;2.40;;;;;;;0.35;81.96;92645.97;4954828;28;20645;-74
2022/03/01 16:54:40;;;;;;;2.20;2.13;;;;;;;0.31;82.65;92647.66;4956710;28;20449;-74
2022/03/01 16:57:07;;;;;;;3.37;3.13;;;;;;;0.31;83.17;92646.81;4951015;28;20493;-74
2022/03/01 16:59:34;;;;;;;1.53;1.47;;;;;;;0.37;84.80;92645.13;4953104;28;20262;-74
2022/03/01 17:02:02;;;;;;;2.10;2.00;;;;;;;0.32;85.11;92651.78;4953786;28;20458;-74
2022/03/01 17:04:29;;;;;;;2.37;2.27;;;;;;;0.39;85.07;92645.13;4953842;28;20222;-76
2022/03/01 17:06:56;;;;;;;2.73;2.53;;;;;;;0.52;83.48;92654.16;4955291;28;20209;-77
2022/03/01 17:09:24;;;;;;;3.03;2.93;;;;;;;0.39;83.02;92623.56;4954026;28;20482;-77
2022/03/01 17:11:53;;;;;;;3.83;3.63;;;;;;;0.59;82.73;92645.84;4953539;28;20611;-77
2022/03/01 17:14:20;;;;;;;2.00;2.00;;;;;;;0.76;81.85;92648.25;4952430;28;20473;-76
2022/03/01 17:16:48;;;;;;;3.73;3.53;;;;;;;0.88;82.00;92652.31;4953837;28;20489;-76
2022/03/01 17:19:15;;;;;;;5.97;5.57;;;;;;;0.80;82.60;92654.84;4954167;28;20630;-77
2022/03/01 17:21:43;;;;;;;7.37;6.87;;;;;;;0.78;83.11;92652.38;4954238;28;20470;-79
2022/03/01 17:24:10;;;;;;;4.60;4.43;;;;;;;0.55;83.52;92626.00;4952671;28;20546;-78
2022/03/01 17:26:38;;;;;;;4.87;4.47;;;;;;;0.67;83.37;92654.13;4954143;28;20588;-80
2022/03/01 17:29:07;;;;;;;6.40;6.00;;;;;;;0.69;83.36;92632.53;4951938;28;20587;-80
2022/03/01 17:31:34;;;;;;;5.60;5.30;;;;;;;0.75;83.12;92647.41;4953322;28;20560;-79
2022/03/01 17:34:01;;;;;;;6.07;4.87;;;;;;;0.82;82.16;92654.00;4953815;28;20544;-79
2022/03/01 17:36:29;;;;;;;5.10;4.83;;;;;;;0.66;83.85;92647.47;4955453;28;20618;-79
2022/03/01 17:38:56;;;;;;;4.10;3.77;;;;;;;0.53;84.10;92637.59;4954971;28;20535;-79
2022/03/01 17:41:23;;;;;;;3.57;3.33;;;;;;;0.47;84.29;92642.59;4955539;28;20515;-79
2022/03/01 17:43:53;;;;;;;3.57;3.37;;;;;;;0.46;85.14;92643.41;4956181;28;20501;-79
2022/03/01 17:46:22;;;;;;;5.87;4.63;;;;;;;0.28;85.98;92614.53;4954944;28;20239;-79
2022/03/01 17:48:49;;;;;;;5.90;3.67;;;;;;;0.32;85.45;92658.41;4954354;28;20672;-79
2022/03/01 17:51:17;;;;;;;5.07;4.87;;;;;;;0.41;85.32;92663.31;4951544;28;20501;-79
2022/03/01 17:53:45;;;;;;;4.77;4.47;;;;;;;0.55;85.06;92658.31;4953187;28;20685;-79
2022/03/01 17:56:13;;;;;;;5.17;4.97;;;;;;;0.42;85.44;92652.56;4953996;28;20493;-79
2022/03/01 17:58:40;;;;;;;6.27;5.87;;;;;;;0.44;85.83;92658.38;4954935;28;20203;-79
2022/03/01 18:01:07;;;;;;;4.93;4.63;;;;;;;0.30;86.34;92650.13;4955563;28;20575;-78
2022/03/01 18:03:36;;;;;;;5.60;5.13;;;;;;;0.28;87.22;92650.13;4955817;28;20512;-78
2022/03/01 18:06:04;;;;;;;4.07;3.97;;;;;;;0.24;86.64;92665.06;4954960;28;20203;-78
2022/03/01 18:08:31;;;;;;;7.60;6.53;;;;;;;0.13;86.47;92654.31;4955315;28;20484;-78
2022/03/01 18:10:58;;;;;;;4.63;4.47;;;;;;;0.15;86.75;92663.44;4955393;28;20653;-78
2022/03/01 18:13:27;;;;;;;5.17;4.87;;;;;;;0.34;85.28;92665.00;4955584;28;20492;-77
2022/03/01 18:15:55;;;;;;;6.27;5.90;;;;;;;0.56;84.81;92678.19;4955032;28;20642;-76
2022/03/01 18:18:22;;;;;;;4.97;4.67;;;;;;;0.67;84.28;92683.13;4955171;28;20483;-75
2022/03/01 18:20:54;;;;;;;8.03;7.57;;;;;;;0.77;83.51;92684.72;4955337;28;20493;-80
2022/03/01 18:23:21;;;;;;;7.57;6.07;;;;;;;0.72;82.70;92674.78;4956579;28;20610;-80
2022/03/01 18:25:49;;;;;;;7.73;7.30;;;;;;;0.81;82.37;92682.19;4954904;28;20655;-78
2022/03/01 18:28:16;;;;;;;6.70;5.13;;;;;;;0.76;82.08;92678.91;4959167;28;20217;-80
2022/03/01 18:30:44;;;;;;;6.00;5.60;;;;;;;0.80;82.65;92680.53;4959206;28;20510;-76
2022/03/01 18:33:12;;;;;;;5.67;5.37;;;;;;;0.76;81.70;92678.09;4959121;28;20592;-77
2022/03/01 18:35:39;;;;;;;6.87;5.23;;;;;;;0.79;81.20;92683.84;4958269;28;20228;-77
2022/03/01 18:38:07;;;;;;;5.83;5.03;;;;;;;0.81;82.22;92687.16;4956911;28;20280;-77
2022/03/01 18:40:35;;;;;;;2.07;2.00;;;;;;;0.82;80.81;92698.78;4957250;28;20602;-77
2022/03/01 18:43:03;;;;;;;7.33;3.63;;;;;;;0.83;80.87;92684.69;4958182;28;20602;-76
2022/03/01 18:45:31;;;;;;;4.13;4.03;;;;;;;0.82;81.00;92685.50;4958393;28;20602;-77
2022/03/01 18:47:58;;;;;;;5.03;4.53;;;;;;;0.69;81.34;92671.47;4958626;28;20199;-77
2022/03/01 18:50:26;;;;;;;5.07;4.83;;;;;;;0.76;81.14;92686.38;4958526;28;20285;-79
2022/03/01 18:52:53;;;;;;;4.40;4.20;;;;;;;0.71;80.12;92692.19;4958719;28;20593;-80
2022/03/01 18:55:21;;;;;;;2.47;2.37;;;;;;;0.59;81.10;92668.22;4958415;28;20481;-79
2022/03/01 18:57:49;;;;;;;4.10;4.00;;;;;;;0.59;81.39;92672.38;4958613;28;20481;-80
2022/03/01 19:00:17;;;;;;;3.13;3.03;;;;;;;0.25;83.00;92640.22;4959148;28;20215;-81
2022/03/01 19:02:44;;;;;;;3.47;3.37;;;;;;;0.24;83.75;92640.22;4958651;28;20578;-83
2022/03/01 19:05:15;;;;;;;4.53;4.23;;;;;;;0.49;82.84;92668.28;4958485;28;20630;-79
2022/03/01 19:07:43;;;;;;;6.60;6.10;;;;;;;0.60;81.61;92686.44;4953801;28;20199;-78
2022/03/01 19:10:13;;;;;;;9.57;8.67;;;;;;;0.67;81.53;92690.56;4955822;28;20559;-79
2022/03/01 19:12:43;;;;;;;12.03;10.60;;;;;;;0.61;82.25;92681.47;4951992;28;20239;-79
2022/03/01 19:15:12;;;;;;;6.97;6.47;;;;;;;0.71;81.84;92685.56;4950126;28;20665;-78
2022/03/01 19:17:39;;;;;;;10.43;8.07;;;;;;;0.62;81.71;92675.66;4951334;28;20557;-79
2022/03/01 19:20:08;;;;;;;11.80;9.83;;;;;;;0.59;82.41;92654.97;4956959;28;20599;-79
2022/03/01 19:22:36;;;;;;;18.40;11.77;;;;;;;0.75;82.17;92678.91;4957870;28;20615;-80
2022/03/01 19:25:05;;;;;;;10.83;9.93;;;;;;;0.77;82.89;92675.59;4958080;28;20539;-79
2022/03/01 19:27:33;;;;;;;7.13;6.57;;;;;;;0.69;81.88;92674.78;4958103;28;20289;-80
2022/03/01 19:30:01;;;;;;;6.33;6.03;;;;;;;0.70;82.16;92680.59;4957692;28;20491;-78
2022/03/01 19:32:29;;;;;;;9.27;5.97;;;;;;;0.52;82.98;92656.66;4958425;28;20228;-79
2022/03/01 19:34:59;;;;;;;7.27;6.67;;;;;;;0.51;83.91;92671.59;4957337;28;20581;-78
2022/03/01 19:37:26;;;;;;;7.07;6.37;;;;;;;0.32;86.17;92673.31;4958288;28;20506;-78
2022/03/01 19:39:54;;;;;;;5.47;4.97;;;;;;;0.17;86.78;92675.88;4957847;28;20214;-79
2022/03/01 19:42:21;;;;;;;6.00;5.63;;;;;;;0.00;88.40;92654.38;4957943;28;20588;-80
2022/03/01 19:44:49;;;;;;;6.47;6.03;;;;;;;-0.01;88.18;92661.84;4959391;28;20572;-80
2022/03/01 19:47:20;;;;;;;6.43;5.87;;;;;;;0.03;88.78;92670.94;4958643;28;20579;-79
2022/03/01 19:49:47;;;;;;;7.87;7.23;;;;;;;0.04;89.06;92667.63;4958340;28;20593;-79
2022/03/01 19:52:15;;;;;;;5.93;5.47;;;;;;;-0.04;89.25;92656.88;4958399;28;20205;-79
2022/03/01 19:54:44;;;;;;;7.73;7.13;;;;;;;0.14;89.28;92673.38;4958626;28;20555;-79
2022/03/01 19:57:11;;;;;;;8.20;7.50;;;;;;;0.08;89.68;92670.91;4958658;28;20579;-79
2022/03/01 19:59:38;;;;;;;10.27;9.40;;;;;;;0.22;88.32;92677.50;4958422;28;20624;-79
2022/03/01 20:02:05;;;;;;;6.33;5.40;;;;;;;0.21;89.07;92677.50;4958523;28;20220;-79
2022/03/01 20:04:34;;;;;;;7.80;7.03;;;;;;;0.13;89.97;92670.06;4957687;28;20631;-79
2022/03/01 20:07:01;;;;;;;8.73;8.00;;;;;;;0.25;89.52;92670.03;4957937;28;20199;-79
2022/03/01 20:09:28;;;;;;;5.40;5.27;;;;;;;0.28;89.82;92679.13;4958670;28;20481;-79
2022/03/01 20:11:55;;;;;;;8.17;7.40;;;;;;;0.20;90.01;92668.38;4958357;28;20505;-79
2022/03/01 20:14:22;;;;;;;6.37;5.97;;;;;;;0.13;90.24;92675.03;4957912;28;20596;-79
2022/03/01 20:16:51;;;;;;;4.83;4.60;;;;;;;0.04;90.22;92674.25;4957602;28;20210;-79
2022/03/01 20:19:18;;;;;;;3.20;3.10;;;;;;;-0.04;90.61;92670.09;4958260;28;20493;-79
2022/03/01 20:21:46;;;;;;;2.37;2.33;;;;;;;-0.14;91.64;92665.16;4948166;28;20569;-79
2022/03/01 20:24:14;;;;;;;4.20;4.00;;;;;;;-0.04;90.97;92661.84;4935082;28;20241;-79
2022/03/01 20:26:41;;;;;;;2.53;2.43;;;;;;;-0.19;92.48;92651.94;4939950;28;20504;-79
2022/03/01 20:29:09;;;;;;;4.80;4.53;;;;;;;-0.28;93.10;92642.84;4957911;28;20198;-79
2022/03/01 20:31:36;;;;;;;4.13;3.93;;;;;;;-0.21;93.28;92659.38;4957600;28;20558;-79
2022/03/01 20:34:04;;;;;;;3.70;3.40;;;;;;;-0.26;93.17;92656.09;4957837;28;20190;-79
2022/03/01 20:36:31;;;;;;;1.80;1.80;;;;;;;-0.21;92.84;92659.38;4957865;28;20479;-79
2022/03/01 20:39:00;;;;;;;1.57;1.57;;;;;;;-0.17;93.02;92657.75;4957628;28;20606;-79
2022/03/01 20:41:27;;;;;;;1.97;1.90;;;;;;;-0.31;93.29;92639.56;4958023;28;20564;-78
2022/03/01 20:43:55;;;;;;;2.17;2.07;;;;;;;-0.11;93.00;92653.56;4957468;28;20477;-79
2022/03/01 20:46:23;;;;;;;1.43;1.43;;;;;;;-0.15;93.16;92646.13;4956181;28;20582;-79
2022/03/01 20:48:50;;;;;;;2.33;2.23;;;;;;;-0.22;93.22;92649.47;4957621;28;20542;-79
2022/03/01 20:51:17;;;;;;;2.27;2.17;;;;;;;-0.23;93.80;92646.19;4957671;28;20574;-79
2022/03/01 20:53:45;;;;;;;1.77;1.70;;;;;;;-0.16;93.27;92647.78;4958601;28;20192;-79
2022/03/01 20:56:13;;;;;;;2.40;2.37;;;;;;;-0.17;93.21;92635.41;4957757;28;20576;-79
2022/03/01 20:58:41;;;;;;;2.33;2.13;;;;;;;0.06;92.29;92651.03;4957866;28;20614;-78
2022/03/01 21:01:08;;;;;;;5.67;2.63;;;;;;;0.13;92.02;92635.28;4956985;28;20592;-79
2022/03/01 21:03:35;;;;;;;2.13;2.03;;;;;;;0.27;92.08;92645.19;4956930;28;20501;-79
2022/03/01 21:06:03;;;;;;;2.00;2.00;;;;;;;0.33;91.22;92650.97;4956504;28;20634;-79
2022/03/01 21:08:30;;;;;;;5.37;3.13;;;;;;;0.33;90.76;92648.47;4957633;28;20195;-79
2022/03/01 21:10:57;;;;;;;2.23;2.17;;;;;;;0.23;91.07;92641.03;4957565;28;20516;-78
2022/03/01 21:13:26;;;;;;;2.13;2.03;;;;;;;0.04;91.27;92629.53;4956400;28;20606;-79
2022/03/01 21:15:53;;;;;;;1.67;1.67;;;;;;;-0.12;91.83;92614.69;4956588;28;20571;-79
2022/03/01 21:18:21;;;;;;;1.63;1.63;;;;;;;-0.18;92.48;92624.66;4957054;28;20465;-79
2022/03/01 21:20:49;;;;;;;2.10;2.10;;;;;;;0.00;92.32;92646.91;4957704;28;20555;-79
2022/03/01 21:23:16;;;;;;;2.83;2.70;;;;;;;0.08;91.13;92649.38;4956958;28;20480;-79
2022/03/01 21:25:43;;;;;;;5.33;4.93;;;;;;;-0.21;92.21;92618.84;4956473;28;20599;-79
2022/03/01 21:28:11;;;;;;;2.57;2.47;;;;;;;-0.34;92.96;92620.56;4956140;28;20207;-79
2022/03/01 21:30:40;;;;;;;3.87;3.43;;;;;;;-0.16;92.84;92644.47;4956888;28;20461;-79
2022/03/01 21:33:08;;;;;;;3.20;3.10;;;;;;;-0.11;92.44;92642.81;4956297;28;20454;-79
2022/03/01 21:35:39;;;;;;;4.13;3.50;;;;;;;-0.26;93.20;92623.00;4956520;28;20583;-78
2022/03/01 21:38:07;;;;;;;5.73;3.30;;;;;;;-0.24;93.51;92638.72;4956387;28;20593;-79
2022/03/01 21:40:35;;;;;;;2.57;2.47;;;;;;;-0.25;93.48;92635.41;4956656;28;20560;-79
2022/03/01 21:43:02;;;;;;;4.00;3.80;;;;;;;-0.36;93.94;92627.16;4956630;28;20196;-78
2022/03/01 21:45:29;;;;;;;2.53;1.97;;;;;;;-0.38;94.61;92637.91;4957076;28;20524;-79
2022/03/01 21:47:58;;;;;;;3.57;3.37;;;;;;;-0.30;94.40;92634.59;4956581;28;20197;-79
2022/03/01 21:50:26;;;;;;;1.60;1.50;;;;;;;-0.13;92.96;92629.59;4955905;28;20208;-79
2022/03/01 21:52:55;;;;;;;2.07;2.07;;;;;;;-0.04;92.84;92639.47;4956284;28;20582;-79
2022/03/01 21:55:23;;;;;;;2.20;2.13;;;;;;;0.01;92.00;92630.34;4956516;28;20191;-78
2022/03/01 21:57:50;;;;;;;2.40;2.30;;;;;;;0.20;91.52;92646.03;4955774;28;20601;-78
2022/03/01 22:00:20;;;;;;;4.10;2.27;;;;;;;0.16;91.26;92644.41;4954744;28;20564;-79
2022/03/01 22:02:48;;;;;;;2.20;2.20;;;;;;;0.02;92.39;92646.91;4956672;28;20251;-79
2022/03/01 22:05:18;;;;;;;2.00;2.00;;;;;;;-0.16;92.96;92642.81;4956272;28;20630;-79